Ship Status Report: callsign CH.16

sailwx.info

Track history (hours):
 
Tides and Currents Weather Stations Pressure Air Temp Water Temp Dewpoint Dewpoint Depression Visibility Wind Speed Wind Dir Waves Ship Positions

Callsign CH.16 (name unknown)

Last reported at 2014-Aug-10 12:33 UTC. Time now 2014-Aug-21 02:23 UTC.
Position N 41°29' W 070°42'.
Warning: this ship's position is 10 days out of date.

Type: Fishing. MMSI: 316003227.

Date/timePositionNaut miles runAvg speedWind from/ knotsBaromVisibWave heightAir tempDewpointWater temp
2014-Aug-10 12:33N 41°29' W 070°42'4 3.7
2014-Aug-10 11:32N 41°26' W 070°45'1 0.6
2014-Aug-10 10:33N 41°26' W 070°46'1 1.3
2014-Aug-10 09:33N 41°26' W 070°47'9 9.2
2014-Aug-10 08:32N 41°35' W 070°53'  
2014-Aug-05 21:16N 41°31' W 070°42'5 7.0
2014-Aug-05 20:33N 41°27' W 070°44'1 0.8
2014-Aug-05 19:12N 41°26' W 070°45'1 1.2
2014-Aug-05 18:34N 41°26' W 070°46'1 1.2
2014-Aug-05 17:33N 41°26' W 070°48'6 6.3
2014-Aug-05 16:33N 41°31' W 070°52'  
2014-Aug-01 23:32N 42°56' W 067°12'52123.8
2014-Aug-01 23:06N 42°08' W 066°44'2 1.2
2014-Aug-01 21:30N 42°10' W 066°42'189 6.3
2014-Jul-31 15:29N 41°32' W 070°51'7 7.2
2014-Jul-31 14:32N 41°28' W 070°44'2 1.9
2014-Jul-31 13:32N 41°27' W 070°46'  
Track history (hours):
 
Tides and Currents Weather Stations Pressure Air Temp Water Temp Dewpoint Dewpoint Depression Visibility Wind Speed Wind Dir Waves Ship Positions

Callsign CH.16 (name unknown)

Last reported at 2014-Aug-10 12:33 UTC. Time now 2014-Aug-21 02:23 UTC.
Position N 41°29' W 070°42'.
Warning: this ship's position is 10 days out of date.

Type: Fishing. MMSI: 316003227.

Date/timePositionNaut miles runAvg speedWind from/ knotsBaromVisibWave heightAir tempDewpointWater temp
2014-Aug-10 12:33N 41°29' W 070°42'4 3.7
2014-Aug-10 11:32N 41°26' W 070°45'1 0.6
2014-Aug-10 10:33N 41°26' W 070°46'1 1.3
2014-Aug-10 09:33N 41°26' W 070°47'9 9.2
2014-Aug-10 08:32N 41°35' W 070°53'  
2014-Aug-05 21:16N 41°31' W 070°42'5 7.0
2014-Aug-05 20:33N 41°27' W 070°44'1 0.8
2014-Aug-05 19:12N 41°26' W 070°45'1 1.2
2014-Aug-05 18:34N 41°26' W 070°46'1 1.2
2014-Aug-05 17:33N 41°26' W 070°48'6 6.3
2014-Aug-05 16:33N 41°31' W 070°52'  
2014-Aug-01 23:32N 42°56' W 067°12'52123.8
2014-Aug-01 23:06N 42°08' W 066°44'2 1.2
2014-Aug-01 21:30N 42°10' W 066°42'189 6.3
2014-Jul-31 15:29N 41°32' W 070°51'7 7.2
2014-Jul-31 14:32N 41°28' W 070°44'2 1.9
2014-Jul-31 13:32N 41°27' W 070°46'  

Dump ship's entire track history